Kennebunk, ME (04043)

2:02 AM EDT on September 01, 2016 (GMT -0400)
Kennebunk | | Change Station

Elev 82 ft 43.39 °N, 70.54 °W | Updated 7 seconds ago

Clear
Clear
67.3 °F
Feels Like 67.3 °F
N
0.0
Wind Variable Wind from West

Today
High -- | Low -- °F
--% Chance of Precip.
Yesterday
High -- | Low -- °F
Precip. -- in
Pressure 29.85 in
Visibility 10.0 miles
Clouds Clear
Dew Point 64 °F
Humidity 90%
Rainfall 0.00 in
Snow Depth Not available.
6:06 AM 7:16 PM
Waning Crescent, 0% visible
METAR KSFM 010556Z AUTO 24006KT 10SM CLR 18/17 A2982 RMK AO2 SLP106 6//// T01830167 10239 20172 58003 $
Pressure 29.85 in
Visibility 10.0 miles
Clouds Clear
Dew Point 64 °F
Humidity 90%
Rainfall 0.00 in
Snow Depth Not available.
6:06 AM 7:16 PM
Waning Crescent, 0% visible
METAR KSFM 010556Z AUTO 24006KT 10SM CLR 18/17 A2982 RMK AO2 SLP106 6//// T01830167 10239 20172 58003 $

10-Day Weather Forecast

Almanac

Astronomy

Sep. 01, 2016 Rise Set
Actual Time
Civil Twilight
Nautical Twilight
Astronomical Twilight
Moon
Length of Visible Light
Length of Day
Tomorrow will be .
, % of the Moon is Illuminated

Today's Extremes

State Highs State Lows

Community

WunderPhotos

Upload Photos

1,936,313 photos uploaded!

WunderBlog® & News

Nearby

Air Quality

  Air Quality AQ Index Pollutant
Not available.

Snow Depth

Station Depth Elevation

Earthquake Activity

City Distance Mag. Time & Date
Minimum magnitude displayed is 2.5.

Coastal Water Temperatures

Place Temperature

Stations

Nearby Weather Stations

Station Location Temp. Windchill Dew Point Humidity Wind Precip. Elev Updated Type
                   

Watches & Warnings

There are currently no watches in effect.